Midway, Iowa
Current Conditions -  °F | °C
As of 12:52 PM on Friday 31 Oct 2014 (Local Time) from KCID Reporting Station
Clear Clear  
Wind Chill: 30°   Ceiling: Unl
Heat Index: 40°   Visibility: 10mi
Dew Point: 21°   Wind: 20mph
Humidity: 47%   Direction: 340°NNW
Pressure: 30.4"   Gusts: 29mph
Location:  42.0672°N, 91.5782°W
Report Text: KCID 311752Z 34017G25KT 10SM CLR 04/M06 A3040 RMK AO2 SLP299 T00441061 10044 21017 50002
Loading
Personal Weather Stations






























Interactive Weather Map
Tropical Storm Tracking
New forecast layout! Learn more

10-Day Weather Forecast

Advertisements
Track Severe Weather on mobile